tititudorancea.com
Station Historical Data
Daily Summary for September 14, 2018 Units:  Metric    English   Both
« Previous Day
Next Day »
Daily Weekly Monthly Yearly Custom
  High: Low: Average:
Temperature: -17.8 °C 6.6 °C 14.3 °C
Dew Point: -17.8 °C -0.1 °C 2.9 °C
Humidity: Humidity % 30 % 49 %
Wind Speed: 0 km/h 0 km/h 16.6 km/h
Wind Gust: 0 km/h - -
Wind:- - SSW
Pressure: 0 hPa 999.9 hPa -
Precipitation: 0 mm    
Historical Graphs
 
 
Ararat weather Find more about Weather in Ararat, AU


 



 


Tabular Data for September 14, 2018
Time Temperature Dew Point Pressure Wind Wind Speed Wind Gust Humidity Rainfall Rate (Hourly)
-17.8 °C -17.8 °C 0 hPa Calm     Humidity % 0 mm
00:04 8.9 °C 3.9 °C 1016.1 hPa North 8 km/h 6 km/h 71 % 0 mm
00:09 8.8 °C 3.8 °C 1015.8 hPa North 13 km/h 6 km/h 71 % 0 mm
00:14 8.8 °C 3.8 °C 1016.1 hPa North 9.3 km/h 6.1 km/h 71 % 0 mm
00:19 8.8 °C 3.8 °C 1015.8 hPa North 12.9 km/h 7.9 km/h 71 % 0 mm
00:24 8.9 °C 3.7 °C 1015.8 hPa North 13 km/h 7.9 km/h 70 % 0 mm
00:29 9 °C 3.6 °C 1015.8 hPa North 13 km/h 10.1 km/h 69 % 0 mm
00:34 9.1 °C 3.7 °C 1015.8 hPa North 11.3 km/h 8.9 km/h 69 % 0 mm
00:39 9.2 °C 3.6 °C 1015.8 hPa North 13 km/h 8 km/h 68 % 0 mm
00:44 9.2 °C 3.3 °C 1016.1 hPa North 8 km/h 5.6 km/h 67 % 0 mm
00:49 9.2 °C 3.3 °C 1015.8 hPa North 13 km/h 8 km/h 67 % 0 mm
00:54 9.2 °C 3.4 °C 1015.8 hPa North 14.8 km/h 9.7 km/h 67 % 0 mm
00:59 9.2 °C 3.2 °C 1015.8 hPa North 13 km/h 10 km/h 66 % 0 mm
01:04 9.2 °C 3.2 °C 1015.8 hPa North 14.8 km/h 8.9 km/h 66 % 0 mm
01:09 9.2 °C 3.2 °C 1015.8 hPa North 16.7 km/h 9.8 km/h 66 % 0 mm
01:14 9.3 °C 3.2 °C 1015.8 hPa North 13 km/h 8 km/h 66 % 0 mm
01:19 9.2 °C 3.2 °C 1015.8 hPa North 11.1 km/h 6.9 km/h 66 % 0 mm
01:24 9.2 °C 3.2 °C 1015.8 hPa North 9.3 km/h 6.6 km/h 66 % 0 mm
01:29 9.1 °C 3.1 °C 1015.8 hPa North 9.3 km/h 6 km/h 66 % 0 mm
01:34 9.1 °C 3.1 °C 1015.8 hPa North 5.6 km/h 4.5 km/h 66 % 0 mm
01:39 8.9 °C 2.9 °C 1015.8 hPa North 6.4 km/h 5.3 km/h 66 % 0 mm
01:44 8.8 °C 2.8 °C 1015.5 hPa North 5.6 km/h 4.2 km/h 66 % 0 mm
01:49 8.7 °C 2.7 °C 1015.5 hPa North 5.6 km/h 4.7 km/h 66 % 0 mm
01:54 8.6 °C 2.8 °C 1015.5 hPa North 5.6 km/h 3.2 km/h 67 % 0 mm
01:59 8.5 °C 2.7 °C 1015.5 hPa North 3.7 km/h 1.3 km/h 67 % 0 mm
02:04 8.4 °C 2.6 °C 1015.1 hPa Calm   0.3 km/h 67 % 0 mm
02:09 8.2 °C 2.4 °C 1015.1 hPa Calm     67 % 0 mm
02:14 8 °C 2.4 °C 1015.1 hPa Calm   0.3 km/h 68 % 0 mm
02:19 7.7 °C 2.4 °C 1015.1 hPa North 3.7 km/h 1.3 km/h 69 % 0 mm
02:24 7.5 °C 2.2 °C 1015.1 hPa North 7.4 km/h 3.9 km/h 69 % 0 mm
02:29 7.3 °C 2.4 °C 1015.1 hPa North 9.3 km/h 6.1 km/h 71 % 0 mm
02:34 7.4 °C 2.5 °C 1015.1 hPa North 7.4 km/h 6 km/h 71 % 0 mm
02:39 7.6 °C 2.5 °C 1015.1 hPa North 9.3 km/h 7.9 km/h 70 % 0 mm
02:44 7.8 °C 2.4 °C 1014.8 hPa North 9.3 km/h 6.4 km/h 69 % 0 mm
02:49 7.9 °C 2.6 °C 1014.8 hPa North 11.1 km/h 8 km/h 69 % 0 mm
02:54 8.1 °C 2.6 °C 1014.8 hPa North 13 km/h 8.5 km/h 68 % 0 mm
02:59 8.2 °C 2.4 °C 1014.4 hPa North 18.5 km/h 10.8 km/h 67 % 0 mm
03:04 8.3 °C 2.5 °C 1014.4 hPa North 13 km/h 9.3 km/h 67 % 0 mm
03:09 8.3 °C 2.5 °C 1014.4 hPa North 14.8 km/h 9.3 km/h 67 % 0 mm
03:14 8.2 °C 2.4 °C 1014.4 hPa North 13 km/h 8.4 km/h 67 % 0 mm
03:19 8.1 °C 2.3 °C 1014.8 hPa North 11.1 km/h 8.2 km/h 67 % 0 mm
03:24 8.1 °C 2.3 °C 1014.4 hPa NNE 12.9 km/h 9.7 km/h 67 % 0 mm
03:29 7.9 °C 2.2 °C 1014.8 hPa NNE 11.1 km/h 6.3 km/h 67 % 0 mm
03:34 7.9 °C 2.3 °C 1014.4 hPa North 11.1 km/h 7.1 km/h 68 % 0 mm
03:39 7.8 °C 2.3 °C 1014.4 hPa North 11.1 km/h 8.5 km/h 68 % 0 mm
03:44 7.8 °C 2.2 °C 1014.4 hPa North 11.1 km/h 5.3 km/h 68 % 0 mm
03:49 7.7 °C 2.2 °C 1014.4 hPa North 9.7 km/h 7.6 km/h 68 % 0 mm
03:54 7.7 °C 2.2 °C 1014.4 hPa North 11.1 km/h 7.4 km/h 68 % 0 mm
03:59 7.7 °C 2.2 °C 1014.4 hPa North 13 km/h 6.1 km/h 68 % 0 mm
04:04 7.8 °C 2.2 °C 1014.4 hPa North 11.1 km/h 7.4 km/h 68 % 0 mm
04:09 7.7 °C 2.2 °C 1014.4 hPa North 9.3 km/h 8.9 km/h 68 % 0 mm
04:14 7.7 °C 2.2 °C 1014.4 hPa North 13 km/h 7.7 km/h 68 % 0 mm
04:19 7.7 °C 2.2 °C 1014.4 hPa North 14.8 km/h 8 km/h 68 % 0 mm
04:24 7.6 °C 2.1 °C 1014.4 hPa North 11.1 km/h 6.1 km/h 68 % 0 mm
04:29 7.6 °C 2 °C 1014.4 hPa North 7.4 km/h 4.2 km/h 68 % 0 mm
04:34 7.5 °C 1.9 °C 1014.4 hPa North 5.6 km/h 3.2 km/h 68 % 0 mm
04:39 7.4 °C 2.1 °C 1014.4 hPa North 9.3 km/h 3.7 km/h 69 % 0 mm
04:44 7.4 °C 2.1 °C 1014.4 hPa North 5.6 km/h 3.1 km/h 69 % 0 mm
04:49 7.3 °C 1.9 °C 1014.4 hPa North 3.7 km/h 2.9 km/h 69 % 0 mm
04:54 7.2 °C 1.8 °C 1014.4 hPa North 9.3 km/h 6.4 km/h 69 % 0 mm
04:59 7.1 °C 1.8 °C 1014.4 hPa North 9.3 km/h 6.8 km/h 69 % 0 mm
05:04 7.1 °C 1.8 °C 1014.4 hPa North 13 km/h 10.5 km/h 69 % 0 mm
05:09 7.1 °C 1.8 °C 1014.4 hPa North 11.1 km/h 8 km/h 69 % 0 mm
05:14 7.1 °C 1.7 °C 1014.4 hPa North 13 km/h 9.8 km/h 69 % 0 mm
05:19 7.1 °C 1.7 °C 1014.1 hPa North 13 km/h 7.6 km/h 69 % 0 mm
05:24 7 °C 1.7 °C 1014.1 hPa North 7.4 km/h 6.1 km/h 69 % 0 mm
05:29 6.9 °C 1.6 °C 1014.1 hPa North 9.3 km/h 5.6 km/h 69 % 0 mm
05:34 6.7 °C 1.6 °C 1014.4 hPa North 7.4 km/h 5.5 km/h 70 % 0 mm
05:39 6.7 °C 1.6 °C 1014.4 hPa North 7.4 km/h 6.3 km/h 70 % 0 mm
05:44 6.7 °C 1.6 °C 1014.4 hPa North 11.1 km/h 6.9 km/h 70 % 0 mm
05:49 6.6 °C 1.5 °C 1014.4 hPa North 9.3 km/h 7.1 km/h 70 % 0 mm
05:54 6.7 °C 1.6 °C 1014.1 hPa North 9.7 km/h 7.9 km/h 70 % 0 mm
05:59 6.7 °C 1.6 °C 1014.1 hPa North 9.7 km/h 7.1 km/h 70 % 0 mm
06:04 6.8 °C 1.7 °C 1014.1 hPa North 7.4 km/h 6.1 km/h 70 % 0 mm
06:09 6.8 °C 1.7 °C 1014.1 hPa North 11.1 km/h 6 km/h 70 % 0 mm
06:14 6.8 °C 1.6 °C 1014.1 hPa North 9.3 km/h 7.4 km/h 69 % 0 mm
06:19 6.8 °C 1.6 °C 1014.1 hPa North 13 km/h 6.8 km/h 69 % 0 mm
06:24 6.8 °C 1.5 °C 1014.1 hPa North 11.1 km/h 5.8 km/h 69 % 0 mm
06:29 6.8 °C 1.7 °C 1014.1 hPa North 9.7 km/h 7.4 km/h 70 % 0 mm
06:34 6.8 °C 1.7 °C 1014.1 hPa North 9.3 km/h 5.3 km/h 70 % 0 mm
06:39 6.7 °C 1.6 °C 1014.1 hPa North 6.4 km/h 5.3 km/h 70 % 0 mm
06:44 6.7 °C 1.6 °C 1014.4 hPa North 6.4 km/h 4.7 km/h 70 % 0 mm
06:49 6.8 °C 1.7 °C 1014.4 hPa North 9.3 km/h 6.4 km/h 70 % 0 mm
06:54 6.9 °C 1.6 °C 1014.4 hPa North 5.6 km/h 4.3 km/h 69 % 0 mm
06:59 7 °C 1.7 °C 1014.4 hPa North 5.6 km/h 5 km/h 69 % 0 mm
07:04 7.1 °C 1.8 °C 1014.4 hPa North 7.4 km/h 6.1 km/h 69 % 0 mm
07:09 7.3 °C 1.8 °C 1014.8 hPa North 9.3 km/h 6.8 km/h 68 % 0 mm
07:14 7.5 °C 1.8 °C 1014.8 hPa North 6.4 km/h 4.8 km/h 67 % 0 mm
07:19 7.6 °C 1.9 °C 1014.4 hPa North 8 km/h 6.1 km/h 67 % 0 mm
07:24 7.8 °C 1.8 °C 1014.4 hPa North 7.4 km/h 5 km/h 66 % 0 mm
07:29 7.9 °C 2.2 °C 1014.4 hPa North 7.4 km/h 4.2 km/h 67 % 0 mm
07:34 8.1 °C 2.1 °C 1014.4 hPa North 5.6 km/h 3.2 km/h 66 % 0 mm
07:39 8.2 °C 2.2 °C 1014.4 hPa North 5.6 km/h 3.4 km/h 66 % 0 mm
07:44 8.4 °C 2.4 °C 1014.4 hPa North 3.7 km/h 1.1 km/h 66 % 0 mm
07:49 8.7 °C 2.4 °C 1014.1 hPa North 5.6 km/h 3.7 km/h 65 % 0 mm
07:54 9 °C 2.8 °C 1014.1 hPa North 5.6 km/h 3.2 km/h 65 % 0 mm
07:59 9.3 °C 2.7 °C 1014.1 hPa North 6.4 km/h 5 km/h 63 % 0 mm
08:04 9.7 °C 2.5 °C 1014.1 hPa North 6.4 km/h 6.1 km/h 61 % 0 mm
08:09 10 °C 3.1 °C 1014.1 hPa North 5.6 km/h 3.7 km/h 62 % 0 mm
08:14 10.3 °C 3.1 °C 1014.1 hPa North 6.4 km/h 4.8 km/h 61 % 0 mm
08:19 10.7 °C 3.3 °C 1013.8 hPa North 13 km/h 6.3 km/h 60 % 0 mm
08:24 10.9 °C 3.2 °C 1013.8 hPa North 13 km/h 4.2 km/h 59 % 0 mm
08:29 11.2 °C 3.7 °C 1013.8 hPa North 9.3 km/h 4.7 km/h 60 % 0 mm
08:34 11.5 °C 3.8 °C 1013.8 hPa North 9.3 km/h 4.2 km/h 59 % 0 mm
08:39 11.8 °C 3.8 °C 1013.8 hPa North 12.9 km/h 10 km/h 58 % 0 mm
08:42 11.9 °C 3.9 °C 1013.8 hPa North 13 km/h 6.8 km/h 58 % 0 mm
08:49 12.1 °C 3.8 °C 1013.8 hPa NNW 20.4 km/h 13.2 km/h 57 % 0 mm
08:54 12.2 °C 3.9 °C 1013.4 hPa North 18.5 km/h 11.6 km/h 57 % 0 mm
08:59 12.4 °C 4.3 °C 1013.4 hPa NW 14.8 km/h 10.6 km/h 58 % 0 mm
09:04 12.6 °C 4.3 °C 1013.4 hPa NNW 24.1 km/h 13.5 km/h 57 % 0 mm
09:09 12.8 °C 4.5 °C 1013.4 hPa North 14.8 km/h 12.4 km/h 57 % 0 mm
09:14 12.9 °C 4.4 °C 1013.4 hPa North 25.9 km/h 16.1 km/h 56 % 0 mm
09:19 13.2 °C 4.3 °C 1013.4 hPa NW 22.2 km/h 12.6 km/h 55 % 0 mm
09:24 13.3 °C 4.5 °C 1013.4 hPa North 25.9 km/h 13.5 km/h 55 % 0 mm
09:29 13.6 °C 4.7 °C 1013.4 hPa NNW 25.9 km/h 14.3 km/h 55 % 0 mm
09:34 13.8 °C 5.2 °C 1013.4 hPa North 18.5 km/h 12.2 km/h 56 % 0 mm
09:39 14 °C 5.1 °C 1013.4 hPa North 17.7 km/h 12.2 km/h 55 % 0 mm
09:44 14.3 °C 4.8 °C 1013.4 hPa North 20.4 km/h 13 km/h 53 % 0 mm
09:49 14.3 °C 4.9 °C 1013.4 hPa NW 22.2 km/h 13.8 km/h 53 % 0 mm
09:54 14.3 °C 4.6 °C 1013.4 hPa North 20.4 km/h 16.4 km/h 52 % 0 mm
09:59 14.2 °C 4.2 °C 1013.4 hPa North 31.5 km/h 18 km/h 51 % 0 mm
10:04 14.4 °C 4.7 °C 1013.1 hPa North 22.2 km/h 15.4 km/h 52 % 0 mm
10:09 14.5 °C 4.5 °C 1013.1 hPa North 29.6 km/h 16.6 km/h 51 % 0 mm
10:14 14.6 °C 4.6 °C 1013.1 hPa NNW 22.2 km/h 15.8 km/h 51 % 0 mm
10:19 14.8 °C 4.5 °C 1013.1 hPa North 22.2 km/h 13.4 km/h 50 % 0 mm
10:24 15.1 °C 5.1 °C 1013.1 hPa North 18.5 km/h 11.7 km/h 51 % 0 mm
10:29 15.3 °C 4.9 °C 1013.1 hPa NNW 31.5 km/h 11.6 km/h 50 % 0 mm
10:34 15.4 °C 5 °C 1013.1 hPa North 24.1 km/h 15 km/h 50 % 0 mm
10:39 15.6 °C 4.9 °C 1012.8 hPa NNW 18.5 km/h 15.6 km/h 49 % 0 mm
10:44 15.6 °C 4.9 °C 1012.8 hPa NW 22.2 km/h 14.2 km/h 49 % 0 mm
10:49 15.7 °C 5 °C 1012.8 hPa NNW 20.4 km/h 13.2 km/h 49 % 0 mm
10:54 15.9 °C 4.9 °C 1012.4 hPa North 29.6 km/h 13 km/h 48 % 0 mm
10:59 16.1 °C 5.1 °C 1012.4 hPa NW 18.5 km/h 12.7 km/h 48 % 0 mm
11:04 16.2 °C 4.9 °C 1012.1 hPa NNW 22.2 km/h 16.3 km/h 47 % 0 mm
11:09 16.5 °C 5.4 °C 1012.1 hPa North 27.8 km/h 17.7 km/h 48 % 0 mm
11:14 16.7 °C 5.3 °C 1012.1 hPa North 25.9 km/h 16.1 km/h 47 % 0 mm
11:19 16.8 °C 5.7 °C 1012.1 hPa NNW 22.2 km/h 15.4 km/h 48 % 0 mm
11:24 17.1 °C 5.7 °C 1012.1 hPa NNW 25.9 km/h 20.8 km/h 47 % 0 mm
11:29 17.2 °C 5.4 °C 1011.7 hPa North 24.1 km/h 18.2 km/h 46 % 0 mm
11:34 17.5 °C 5.4 °C 1011.7 hPa NNW 25.9 km/h 21.9 km/h 45 % 0 mm
11:39 17.6 °C 5.5 °C 1011.7 hPa North 33.3 km/h 15.3 km/h 45 % 0 mm
11:44 17.9 °C 5.8 °C 1011.7 hPa North 18.5 km/h 10 km/h 45 % 0 mm
11:49 18.4 °C 5.6 °C 1011.4 hPa NW 25.9 km/h 14.5 km/h 43 % 0 mm
11:54 18.4 °C 5.3 °C 1011.4 hPa NNE 31.5 km/h 19.8 km/h 42 % 0 mm
11:59 18.6 °C 5.4 °C 1011.4 hPa North 25.9 km/h 14.2 km/h 42 % 0 mm
12:04 18.8 °C 5.6 °C 1011.1 hPa NW 30.6 km/h 21.1 km/h 42 % 0 mm
12:09 18.8 °C 5.3 °C 1011.1 hPa NNW 25.9 km/h 17.7 km/h 41 % 0 mm
12:14 18.9 °C 5.3 °C 1011.1 hPa NNW 31.5 km/h 16.4 km/h 41 % 0 mm
12:19 19 °C 5.4 °C 1011.1 hPa North 22.2 km/h 14.8 km/h 41 % 0 mm
12:24 19.3 °C 4.9 °C 1010.7 hPa NNW 29.6 km/h 23.2 km/h 39 % 0 mm
12:29 19.3 °C 4.9 °C 1010.7 hPa NNW 20.4 km/h 11.6 km/h 39 % 0 mm
12:34 19.7 °C 5.7 °C 1010.7 hPa North 18.5 km/h 13.2 km/h 40 % 0 mm
12:39 19.9 °C 4.8 °C 1010.7 hPa North 18.5 km/h 11.7 km/h 37 % 0 mm
12:44 19.8 °C 4.3 °C 1010.4 hPa North 27.8 km/h 22.2 km/h 36 % 0 mm
12:49 19.7 °C 3.8 °C 1010.4 hPa North 27.8 km/h 21.1 km/h 35 % 0 mm
12:54 19.8 °C 4.7 °C 1010.4 hPa NNW 29.6 km/h 24 km/h 37 % 0 mm
12:59 19.7 °C 4.2 °C 1010 hPa North 35.2 km/h 23.7 km/h 36 % 0 mm
13:04 19.9 °C 4.4 °C 1009.7 hPa North 25.9 km/h 18.2 km/h 36 % 0 mm
13:09 20.2 °C 4.6 °C 1010 hPa North 33.3 km/h 11.1 km/h 36 % 0 mm
13:14 20.2 °C 4.2 °C 1009.7 hPa NNE 22.2 km/h 19.6 km/h 35 % 0 mm
13:19 20.4 °C 4.8 °C 1009.7 hPa NNW 18.5 km/h 12.6 km/h 36 % 0 mm
13:24 20.7 °C 4.7 °C 1009.7 hPa NNW 32.2 km/h 14.5 km/h 35 % 0 mm
13:29 20.5 °C 4.1 °C 1009.4 hPa NNE 25.9 km/h 21.7 km/h 34 % 0 mm
13:34 20.5 °C 4.1 °C 1009 hPa NNE 29.6 km/h 16.9 km/h 34 % 0 mm
13:39 20.6 °C 4.6 °C 1009 hPa North 29.6 km/h 22.2 km/h 35 % 0 mm
13:44 20.8 °C 4.7 °C 1009 hPa NW 31.5 km/h 20.1 km/h 35 % 0 mm
13:49 20.7 °C 4.7 °C 1008.7 hPa NNW 25.9 km/h 12.1 km/h 35 % 0 mm
13:54 21.1 °C 4.2 °C 1008.7 hPa North 24.1 km/h 15.8 km/h 33 % 0 mm
13:59 21.1 °C 4.6 °C 1008.7 hPa NW 27.4 km/h 15.9 km/h 34 % 0 mm
14:04 20.7 °C 4.3 °C 1008.7 hPa North 22.2 km/h 17.2 km/h 34 % 0 mm
14:09 20.8 °C 4.4 °C 1008.7 hPa NNW 35.2 km/h 14.3 km/h 34 % 0 mm
14:14 20.9 °C 4 °C 1008.4 hPa North 29.6 km/h 16.7 km/h 33 % 0 mm
14:19 21 °C 3.7 °C 1008.4 hPa North 29.6 km/h 17.9 km/h 32 % 0 mm
14:24 20.8 °C 3.9 °C 1008.4 hPa North 22.2 km/h 15.8 km/h 33 % 0 mm
14:29 21 °C 4.6 °C 1008 hPa NNW 20.4 km/h 14.5 km/h 34 % 0 mm
14:34 21.2 °C 4.3 °C 1008 hPa North 29.6 km/h 14 km/h 33 % 0 mm
14:39 21.1 °C 3.8 °C 1008 hPa North 31.5 km/h 21.4 km/h 32 % 0 mm
14:44 21.1 °C 4.2 °C 1008 hPa NNW 27.4 km/h 16.4 km/h 33 % 0 mm
14:49 21 °C 3.7 °C 1007.7 hPa North 20.4 km/h 15.9 km/h 32 % 0 mm
14:54 21.2 °C 3.8 °C 1007.7 hPa North 29.6 km/h 19.6 km/h 32 % 0 mm
14:59 20.9 °C 3.6 °C 1007.7 hPa NNW 25.9 km/h 16.1 km/h 32 % 0 mm
15:04 20.8 °C 3.9 °C 1007.7 hPa North 17.7 km/h 11.4 km/h 33 % 0 mm
15:09 21.1 °C 3.3 °C 1007.3 hPa NW 31.5 km/h 21.7 km/h 31 % 0 mm
15:14 21.1 °C 3.3 °C 1007.3 hPa NNW 24.1 km/h 16.6 km/h 31 % 0 mm
15:19 21.2 °C 3.3 °C 1007.3 hPa NNW 22.5 km/h 17.7 km/h 31 % 0 mm
15:24 20.9 °C 3.1 °C 1007.3 hPa NNW 37 km/h 25.6 km/h 31 % 0 mm
15:29 20.8 °C 3.5 °C 1007 hPa NW 20.4 km/h 16.1 km/h 32 % 0 mm
15:34 20.9 °C 3.6 °C 1007 hPa NNW 29.6 km/h 15.6 km/h 32 % 0 mm
15:39 21 °C 3.2 °C 1007 hPa North 31.5 km/h 16.1 km/h 31 % 0 mm
15:44 21.1 °C 3.8 °C 1006.7 hPa NW 18.5 km/h 14.6 km/h 32 % 0 mm
15:49 21.3 °C 3.4 °C 1006.7 hPa North 25.9 km/h 21.9 km/h 31 % 0 mm
15:54 21.2 °C 2.9 °C 1006.7 hPa NNW 29.6 km/h 18.2 km/h 30 % 0 mm
15:59 21.2 °C 2.9 °C 1006.7 hPa North 18.5 km/h 14.5 km/h 30 % 0 mm
16:04 21.2 °C 3.4 °C 1006.7 hPa NW 25.9 km/h 17.2 km/h 31 % 0 mm
16:09 21.2 °C 2.9 °C 1006.3 hPa North 31.5 km/h 23.2 km/h 30 % 0 mm
16:14 21.2 °C 3.4 °C 1006.3 hPa North 18.5 km/h 11.6 km/h 31 % 0 mm
16:19 21.3 °C 3.4 °C 1006.3 hPa North 22.2 km/h 13 km/h 31 % 0 mm
16:24 21.3 °C 3.4 °C 1006.3 hPa North 20.4 km/h 12.1 km/h 31 % 0 mm
16:29 21.3 °C 3.9 °C 1006.3 hPa North 24.1 km/h 15.4 km/h 32 % 0 mm
16:34 21.2 °C 3.4 °C 1006 hPa NNW 27.8 km/h 18.2 km/h 31 % 0 mm
16:39 21.2 °C 3.3 °C 1006 hPa NNW 25.9 km/h 15.9 km/h 31 % 0 mm
16:44 21.1 °C 3.3 °C 1006 hPa NNW 18.5 km/h 16.4 km/h 31 % 0 mm
16:49 21.1 °C 3.3 °C 1006 hPa North 25.9 km/h 20.9 km/h 31 % 0 mm
16:54 21.1 °C 3.3 °C 1006 hPa NNE 20.4 km/h 17.2 km/h 31 % 0 mm
16:59 21.1 °C 3.7 °C 1006 hPa NNE 18.5 km/h 11.7 km/h 32 % 0 mm
17:04 21.1 °C 3.7 °C 1005.6 hPa NNE 17.7 km/h 10.6 km/h 32 % 0 mm
17:09 21 °C 3.2 °C 1006 hPa North 22.2 km/h 9.2 km/h 31 % 0 mm
17:14 20.8 °C 3.5 °C 1005.6 hPa NNW 18.5 km/h 12.2 km/h 32 % 0 mm
17:19 20.8 °C 3.4 °C 1006 hPa NNW 16.7 km/h 12.9 km/h 32 % 0 mm
17:24 20.7 °C 3.4 °C 1005.6 hPa NNW 13 km/h 10.5 km/h 32 % 0 mm
17:29 20.6 °C 3.8 °C 1005.6 hPa North 12.9 km/h 11.1 km/h 33 % 0 mm
17:34 20.5 °C 3.7 °C 1005.6 hPa North 13 km/h 10.3 km/h 33 % 0 mm
17:39 20.4 °C 3.6 °C 1005.6 hPa North 14.8 km/h 6.9 km/h 33 % 0 mm
17:44 20.3 °C 3.4 °C 1005.6 hPa North 18.5 km/h 9.8 km/h 33 % 0 mm
17:49 20.2 °C 3.8 °C 1005.6 hPa North 9.3 km/h 6 km/h 34 % 0 mm
17:54 20.1 °C 3.3 °C 1005.6 hPa North 11.1 km/h 8.4 km/h 33 % 0 mm
17:59 19.9 °C 3.6 °C 1005.6 hPa North 16.7 km/h 7.6 km/h 34 % 0 mm
18:04 19.7 °C 3.3 °C 1005.6 hPa North 13 km/h 10.9 km/h 34 % 0 mm
18:09 19.4 °C 3.5 °C 1005.6 hPa North 13 km/h 11.6 km/h 35 % 0 mm
18:14 19.2 °C 3.4 °C 1005.6 hPa North 13 km/h 8 km/h 35 % 0 mm
18:19 18.9 °C 3.6 °C 1005.6 hPa North 16.7 km/h 9.3 km/h 36 % 0 mm
18:24 18.7 °C 3.7 °C 1005.3 hPa North 13 km/h 7.1 km/h 37 % 0 mm
18:29 18.6 °C 3.6 °C 1005.3 hPa North 16.7 km/h 6.6 km/h 37 % 0 mm
18:34 18.4 °C 3.5 °C 1005.3 hPa North 9.3 km/h 7.9 km/h 37 % 0 mm
18:39 18.3 °C 3.3 °C 1005.3 hPa North 9.3 km/h 5.1 km/h 37 % 0 mm
18:44 18.1 °C 3.2 °C 1005.3 hPa North 9.3 km/h 4.8 km/h 37 % 0 mm
18:49 18 °C 3.1 °C 1005.3 hPa North 5.6 km/h 4.3 km/h 37 % 0 mm
18:54 17.9 °C 3 °C 1005 hPa North 9.3 km/h 6.1 km/h 37 % 0 mm
18:59 17.7 °C 3.2 °C 1005 hPa North 7.4 km/h 6.8 km/h 38 % 0 mm
19:04 17.7 °C 2.8 °C 1005 hPa North 11.1 km/h 6 km/h 37 % 0 mm
19:09 17.7 °C 2.8 °C 1005 hPa North 11.1 km/h 4.3 km/h 37 % 0 mm
19:14 17.7 °C 2.8 °C 1005 hPa North 9.3 km/h 8 km/h 37 % 0 mm
19:19 17.6 °C 2.7 °C 1005 hPa North 7.4 km/h 3.7 km/h 37 % 0 mm
19:24 17.5 °C 2.6 °C 1005 hPa North 5.6 km/h 3.1 km/h 37 % 0 mm
19:29 17.3 °C 2.9 °C 1005 hPa North 6.4 km/h 3.1 km/h 38 % 0 mm
19:34 16.9 °C 2.5 °C 1005 hPa North 7.4 km/h 2.9 km/h 38 % 0 mm
19:39 16.8 °C 2.4 °C 1004.6 hPa North 7.4 km/h 2.1 km/h 38 % 0 mm
19:44 16.7 °C 2.3 °C 1004.6 hPa North 7.4 km/h 6 km/h 38 % 0 mm
19:49 16.7 °C 2.7 °C 1004.6 hPa North 11.1 km/h 6.3 km/h 39 % 0 mm
19:54 16.7 °C 2.7 °C 1004.6 hPa North 14.8 km/h 5 km/h 39 % 0 mm
19:59 16.8 °C 2.4 °C 1004.6 hPa North 17.7 km/h 14.3 km/h 38 % 0 mm
20:04 16.8 °C 2.4 °C 1004.3 hPa NNE 14.8 km/h 11.1 km/h 38 % 0 mm
20:09 16.9 °C 2.4 °C 1004.3 hPa North 18.5 km/h 9.3 km/h 38 % 0 mm
20:14 16.8 °C 2.4 °C 1004.3 hPa North 14.8 km/h 10.8 km/h 38 % 0 mm
20:19 16.8 °C 2.4 °C 1004.3 hPa NNE 18.5 km/h 12.1 km/h 38 % 0 mm
20:24 16.8 °C 2.4 °C 1004.3 hPa North 18.5 km/h 9.3 km/h 38 % 0 mm
20:29 16.7 °C 1.9 °C 1004.3 hPa NNE 13 km/h 10.8 km/h 37 % 0 mm
20:34 16.7 °C 1.9 °C 1004.3 hPa NNE 16.7 km/h 7.9 km/h 37 % 0 mm
20:39 16.6 °C 1.8 °C 1004.3 hPa North 18.5 km/h 9 km/h 37 % 0 mm
20:44 16.6 °C 1.8 °C 1004.3 hPa North 18.5 km/h 13.4 km/h 37 % 0 mm
20:49 16.6 °C 1.8 °C 1004.3 hPa North 16.7 km/h 8.9 km/h 37 % 0 mm
20:54 16.6 °C 1.8 °C 1003.9 hPa North 16.7 km/h 10.6 km/h 37 % 0 mm
20:59 16.5 °C 1.7 °C 1003.9 hPa North 18.5 km/h 12.7 km/h 37 % 0 mm
21:04 16.5 °C 1.7 °C 1003.9 hPa North 18.5 km/h 11.9 km/h 37 % 0 mm
21:09 16.4 °C 1.7 °C 1003.6 hPa North 16.7 km/h 8.7 km/h 37 % 0 mm
21:14 16.3 °C 1.6 °C 1003.6 hPa North 18.5 km/h 10 km/h 37 % 0 mm
21:19 16.3 °C 1.6 °C 1003.6 hPa North 16.7 km/h 8.9 km/h 37 % 0 mm
21:24 16.2 °C 1.5 °C 1003.6 hPa North 14.8 km/h 9.5 km/h 37 % 0 mm
21:29 16.2 °C 1.5 °C 1003.3 hPa North 13 km/h 8.4 km/h 37 % 0 mm
21:34 16.2 °C 1.5 °C 1003.3 hPa North 18.5 km/h 12.9 km/h 37 % 0 mm
21:39 16.3 °C 1.2 °C 1002.9 hPa NNE 18.5 km/h 11.4 km/h 36 % 0 mm
21:44 16.3 °C 1.2 °C 1002.9 hPa NNE 18.5 km/h 10.9 km/h 36 % 0 mm
21:49 16.2 °C 1.1 °C 1002.9 hPa NNE 22.2 km/h 13.7 km/h 36 % 0 mm
21:54 16.2 °C 1.4 °C 1002.6 hPa NNE 18.5 km/h 14.2 km/h 37 % 0 mm
21:59 16.1 °C 1.4 °C 1002.6 hPa North 20.4 km/h 12.2 km/h 37 % 0 mm
22:04 16.1 °C 0.9 °C 1002.6 hPa NNE 20.4 km/h 10.5 km/h 36 % 0 mm
22:09 16.1 °C 1.3 °C 1002.6 hPa North 29.6 km/h 14 km/h 37 % 0 mm
22:14 16.1 °C 1.3 °C 1002.6 hPa NNE 24.1 km/h 12.4 km/h 37 % 0 mm
22:19 16 °C 1.3 °C 1002.3 hPa NNE 24.1 km/h 15.3 km/h 37 % 0 mm
22:24 16 °C 1.3 °C 1002.3 hPa NNE 22.2 km/h 15.9 km/h 37 % 0 mm
22:29 16 °C 1.3 °C 1002.3 hPa North 18.5 km/h 9.7 km/h 37 % 0 mm
22:34 16 °C 0.9 °C 1002.3 hPa North 16.7 km/h 11.7 km/h 36 % 0 mm
22:39 16 °C 0.9 °C 1001.9 hPa NNE 18.5 km/h 14.2 km/h 36 % 0 mm
22:44 16.1 °C 0.9 °C 1002.3 hPa NNE 14.8 km/h 7.9 km/h 36 % 0 mm
22:49 16.1 °C 0.9 °C 1001.9 hPa North 14.8 km/h 12.4 km/h 36 % 0 mm
22:54 16.2 °C 0.7 °C 1001.6 hPa North 18.5 km/h 11.3 km/h 35 % 0 mm
22:59 16.3 °C 0.8 °C 1001.2 hPa North 19.3 km/h 16.6 km/h 35 % 0 mm
23:04 16.3 °C 0.8 °C 1001.2 hPa NNE 20.4 km/h 17.9 km/h 35 % 0 mm
23:09 16.2 °C 0.7 °C 1001.2 hPa NNE 16.7 km/h 12.7 km/h 35 % 0 mm
23:14 16.2 °C 0.7 °C 1001.2 hPa North 18.5 km/h 14.2 km/h 35 % 0 mm
23:19 16.6 °C 0.7 °C 1001.2 hPa North 24.1 km/h 17.4 km/h 34 % 0 mm
23:24 16.9 °C 0.6 °C 1000.9 hPa NNW 18.5 km/h 15.4 km/h 33 % 0 mm
23:29 17.2 °C 0.8 °C 1000.9 hPa North 18.5 km/h 15.1 km/h 33 % 0 mm
23:34 17.4 °C 0.6 °C 1000.6 hPa North 16.1 km/h 11.6 km/h 32 % 0 mm
23:39 17.6 °C 0.3 °C 1000.6 hPa North 22.2 km/h 13.7 km/h 31 % 0 mm
23:44 17.7 °C 0.3 °C 1000.2 hPa North 18.5 km/h 11.9 km/h 31 % 0 mm
23:49 17.7 °C 0.3 °C 1000.2 hPa NNW 24.1 km/h 11.1 km/h 31 % 0 mm
23:54 17.8 °C -0.1 °C 1000.2 hPa North 24.1 km/h 13.4 km/h 30 % 0 mm
23:59 17.8 °C 0.4 °C 999.9 hPa NNW 18.5 km/h 13.4 km/h 31 % 0 mm
Ararat Weather
Compliments of Weather Underground - 2.25 mb
Click here to send mail.


ABOUT

Live weather data from Ararat, Victoria, Australia, 3377
Data uploaded from Cumulus every 5 minutes to Weather Underground.
This site then downloads the raw data for formatting and display.
Metric and imperial data can be displayed. Graphs and historical data available.
Includes Sun and Moon times and rain image live from BOM.

Check out Ararat Weather on Facebook, Twitter and Google +

Help support ongoing costs by checking out the ads





Follow @AraratWeather